createdAt,value
2019-02-21T00:00:24.222Z,3.40
2019-02-21T00:02:54.048Z,2.73
2019-02-21T00:05:22.737Z,3.70
2019-02-21T00:07:56.588Z,2.83
2019-02-21T00:10:26.723Z,3.40
2019-02-21T00:12:56.450Z,3.27
2019-02-21T00:15:26.791Z,3.20
2019-02-21T00:17:55.457Z,3.00
2019-02-21T00:20:29.712Z,3.23
2019-02-21T00:22:58.517Z,3.30
2019-02-21T00:25:27.386Z,2.70
2019-02-21T00:27:56.338Z,2.93
2019-02-21T00:30:34.935Z,3.20
2019-02-21T00:32:55.308Z,3.37
2019-02-21T00:35:24.197Z,2.90
2019-02-21T00:37:52.970Z,3.83
2019-02-21T00:40:27.345Z,4.70
2019-02-21T00:42:56.380Z,4.03
2019-02-21T00:45:25.173Z,4.13
2019-02-21T00:47:55.191Z,3.50
2019-02-21T00:50:27.317Z,5.30
2019-02-21T00:52:56.049Z,3.40
2019-02-21T00:55:27.937Z,4.73
2019-02-21T00:58:02.190Z,4.37
2019-02-21T01:00:30.958Z,4.20
2019-02-21T01:02:59.646Z,4.80
2019-02-21T01:05:30.069Z,3.93
2019-02-21T01:08:00.340Z,4.20
2019-02-21T01:10:29.263Z,5.97
2019-02-21T01:12:58.135Z,5.97
2019-02-21T01:15:32.539Z,6.57
2019-02-21T01:18:01.995Z,7.20
2019-02-21T01:20:31.829Z,8.03
2019-02-21T01:23:03.614Z,7.90
2019-02-21T01:25:34.899Z,8.20
2019-02-21T01:28:03.636Z,8.53
2019-02-21T01:30:36.512Z,8.83
2019-02-21T01:33:06.087Z,9.53
2019-02-21T01:35:37.232Z,10.20
2019-02-21T01:38:05.873Z,9.40
2019-02-21T01:40:35.379Z,10.10
2019-02-21T01:43:05.397Z,9.93
2019-02-21T01:45:35.535Z,9.83
2019-02-21T01:48:04.113Z,9.87
2019-02-21T01:50:34.191Z,10.60
2019-02-21T01:53:05.076Z,10.10
2019-02-21T01:55:35.291Z,10.57
2019-02-21T01:58:05.477Z,10.13
2019-02-21T02:00:41.180Z,12.00
2019-02-21T02:03:16.181Z,10.87
2019-02-21T02:05:46.539Z,11.10
2019-02-21T02:08:17.485Z,11.57
2019-02-21T02:10:46.236Z,11.17
2019-02-21T02:13:24.196Z,12.17
2019-02-21T02:15:47.550Z,12.67
2019-02-21T02:18:18.904Z,10.67
2019-02-21T02:20:48.019Z,11.33
2019-02-21T02:23:18.000Z,11.37
2019-02-21T02:25:47.229Z,11.10
2019-02-21T02:28:21.228Z,11.43
2019-02-21T02:30:50.427Z,10.60
2019-02-21T02:33:22.565Z,11.37
2019-02-21T02:35:51.285Z,10.50
2019-02-21T02:38:21.523Z,11.23
2019-02-21T02:40:50.314Z,11.57
2019-02-21T02:43:18.988Z,11.00
2019-02-21T02:45:47.910Z,10.50
2019-02-21T02:48:19.746Z,11.40
2019-02-21T02:50:48.598Z,10.87
2019-02-21T02:53:20.371Z,11.20
2019-02-21T02:55:50.475Z,10.73
2019-02-21T02:58:21.981Z,10.80
2019-02-21T03:00:50.613Z,10.93
2019-02-21T03:03:20.835Z,10.97
2019-02-21T03:05:51.033Z,11.33
2019-02-21T03:08:19.680Z,11.10
2019-02-21T03:10:48.843Z,12.23
2019-02-21T03:13:19.013Z,11.80
2019-02-21T03:15:50.109Z,11.93
2019-02-21T03:18:19.771Z,12.93
2019-02-21T03:20:48.559Z,12.70
2019-02-21T03:23:18.033Z,13.27
2019-02-21T03:25:46.736Z,13.40
2019-02-21T03:28:15.547Z,13.60
2019-02-21T03:30:44.345Z,13.83
2019-02-21T03:33:14.429Z,13.90
2019-02-21T03:35:43.051Z,14.87
2019-02-21T03:38:13.179Z,13.10
2019-02-21T03:40:44.984Z,14.73
2019-02-21T03:43:14.967Z,14.20
2019-02-21T03:45:43.816Z,14.60
2019-02-21T03:48:12.624Z,15.10
2019-02-21T03:50:44.340Z,14.03
2019-02-21T03:53:15.690Z,14.60
2019-02-21T03:55:48.325Z,13.93
2019-02-21T03:58:18.896Z,15.27
2019-02-21T04:00:47.701Z,13.63
2019-02-21T04:03:19.125Z,13.50
2019-02-21T04:05:49.433Z,13.40
2019-02-21T04:08:18.170Z,14.43
2019-02-21T04:10:47.269Z,13.07
2019-02-21T04:13:16.968Z,14.77
2019-02-21T04:15:46.742Z,14.20
2019-02-21T04:18:17.022Z,14.17
2019-02-21T04:20:47.665Z,14.73
2019-02-21T04:23:19.677Z,13.87
2019-02-21T04:25:48.486Z,14.73
2019-02-21T04:28:21.170Z,14.47
2019-02-21T04:30:50.430Z,15.17
2019-02-21T04:33:19.249Z,14.03
2019-02-21T04:35:48.726Z,15.43
2019-02-21T04:38:17.822Z,14.93
2019-02-21T04:40:47.659Z,14.60
2019-02-21T04:43:16.510Z,14.27
2019-02-21T04:45:45.328Z,15.33
2019-02-21T04:48:14.675Z,15.73
2019-02-21T04:50:43.547Z,15.17
2019-02-21T04:53:14.497Z,14.43
2019-02-21T04:55:43.098Z,15.93
2019-02-21T04:58:11.786Z,17.07
2019-02-21T05:00:40.434Z,16.60
2019-02-21T05:03:09.940Z,16.97
2019-02-21T05:05:40.110Z,16.93
2019-02-21T05:08:08.853Z,17.70
2019-02-21T05:10:37.537Z,17.67
2019-02-21T05:13:09.294Z,18.03
2019-02-21T05:15:38.187Z,19.67
2019-02-21T05:18:10.897Z,19.20
2019-02-21T05:20:39.637Z,18.23
2019-02-21T05:23:09.799Z,18.13
2019-02-21T05:25:39.721Z,19.93
2019-02-21T05:28:27.872Z,19.17
2019-02-21T05:31:00.075Z,20.13
2019-02-21T05:33:45.538Z,20.83
2019-02-21T05:36:16.508Z,21.50
2019-02-21T05:38:48.577Z,23.20
2019-02-21T05:41:20.886Z,26.50
2019-02-21T05:44:03.750Z,22.67
2019-02-21T05:46:34.381Z,23.53
2019-02-21T05:49:05.395Z,23.50
2019-02-21T05:51:47.287Z,25.47
2019-02-21T05:54:26.089Z,25.50
2019-02-21T05:57:09.106Z,23.93
2019-02-21T06:00:07.852Z,24.20
2019-02-21T06:02:53.166Z,23.53
2019-02-21T06:05:22.338Z,24.30
2019-02-21T06:08:02.256Z,25.73
2019-02-21T06:10:33.796Z,24.80
2019-02-21T06:13:21.880Z,24.17
2019-02-21T06:16:00.765Z,24.43
2019-02-21T06:18:37.104Z,24.10
2019-02-21T06:21:07.422Z,23.63
2019-02-21T06:23:40.385Z,25.20
2019-02-21T06:26:26.950Z,25.53
2019-02-21T06:29:02.931Z,25.27
2019-02-21T06:31:32.803Z,25.63
2019-02-21T06:34:01.712Z,26.23
2019-02-21T06:36:41.116Z,136.53
2019-02-21T06:39:10.831Z,29.30
2019-02-21T06:41:39.732Z,28.10
2019-02-21T06:44:08.828Z,27.73
2019-02-21T06:46:37.500Z,27.23
2019-02-21T06:49:10.208Z,27.13
2019-02-21T06:51:45.025Z,25.97
2019-02-21T06:54:15.312Z,27.47
2019-02-21T06:56:45.664Z,28.50
2019-02-21T06:59:14.324Z,39.43
2019-02-21T07:01:49.410Z,35.83
2019-02-21T07:04:21.193Z,27.50
2019-02-21T07:06:53.780Z,28.53
2019-02-21T07:09:24.366Z,30.10
2019-02-21T07:12:01.470Z,63.10
2019-02-21T07:14:34.437Z,29.50
2019-02-21T07:17:03.261Z,26.23
2019-02-21T07:19:43.792Z,27.43
2019-02-21T07:22:17.623Z,27.33
2019-02-21T07:24:44.597Z,29.40
2019-02-21T07:27:15.065Z,28.23
2019-02-21T07:29:46.153Z,27.93
2019-02-21T07:32:14.955Z,27.80
2019-02-21T07:35:00.360Z,27.80
2019-02-21T07:37:31.926Z,26.97
2019-02-21T07:40:03.602Z,29.97
2019-02-21T07:42:40.935Z,29.30
2019-02-21T07:45:11.287Z,27.80
2019-02-21T07:47:45.854Z,30.00
2019-02-21T07:50:17.400Z,27.77
2019-02-21T07:52:49.531Z,29.00
2019-02-21T07:55:21.092Z,27.43
2019-02-21T07:57:51.997Z,27.33
2019-02-21T08:00:21.575Z,27.87
2019-02-21T08:02:50.257Z,28.43
2019-02-21T08:05:23.790Z,28.20
2019-02-21T08:07:53.946Z,27.40
2019-02-21T08:10:33.841Z,25.40
2019-02-21T08:13:01.314Z,24.97
2019-02-21T08:15:31.275Z,24.77
2019-02-21T08:18:00.284Z,51.03
2019-02-21T08:20:34.173Z,26.57
2019-02-21T08:23:03.072Z,27.73
2019-02-21T08:25:35.960Z,24.60
2019-02-21T08:28:04.672Z,25.80
2019-02-21T08:30:36.997Z,26.27
2019-02-21T08:33:10.481Z,25.33
2019-02-21T08:35:41.932Z,24.80
2019-02-21T08:38:12.170Z,24.17
2019-02-21T08:40:42.724Z,22.43
2019-02-21T08:43:11.752Z,22.50
2019-02-21T08:45:44.140Z,23.00
2019-02-21T08:48:13.590Z,25.20
2019-02-21T08:50:44.330Z,32.37
2019-02-21T08:53:14.603Z,26.37
2019-02-21T08:55:45.288Z,21.53
2019-02-21T08:58:14.049Z,20.80
2019-02-21T09:00:43.033Z,22.60
2019-02-21T09:03:11.873Z,23.30
2019-02-21T09:05:43.409Z,23.43
2019-02-21T09:08:16.417Z,21.97
2019-02-21T09:10:42.546Z,24.10
2019-02-21T09:13:13.685Z,23.23
2019-02-21T09:15:42.483Z,23.83
2019-02-21T09:18:15.653Z,23.57
2019-02-21T09:20:47.886Z,22.67
2019-02-21T09:23:16.708Z,23.67
2019-02-21T09:25:52.661Z,24.67
2019-02-21T09:28:21.455Z,25.10
2019-02-21T09:30:51.787Z,24.83
2019-02-21T09:33:21.470Z,24.67
2019-02-21T09:35:51.106Z,27.43
2019-02-21T09:38:19.957Z,27.03
2019-02-21T09:40:48.876Z,27.40
2019-02-21T09:43:17.585Z,28.13
2019-02-21T09:45:48.396Z,27.33
2019-02-21T09:48:16.910Z,26.60
2019-02-21T09:50:47.517Z,27.67
2019-02-21T09:53:16.437Z,28.57
2019-02-21T09:55:45.200Z,28.67
2019-02-21T09:58:13.809Z,31.07
2019-02-21T10:00:42.726Z,29.50
2019-02-21T10:03:13.011Z,30.70
2019-02-21T10:05:41.762Z,30.70
2019-02-21T10:08:11.962Z,31.47
2019-02-21T10:10:40.887Z,30.20
2019-02-21T10:13:09.624Z,32.73
2019-02-21T10:15:38.351Z,30.57
2019-02-21T10:18:08.605Z,31.27
2019-02-21T10:20:38.720Z,32.63
2019-02-21T10:23:09.824Z,31.03
2019-02-21T10:25:52.532Z,31.37
2019-02-21T10:28:21.243Z,33.90
2019-02-21T10:30:55.747Z,30.30
2019-02-21T10:33:25.394Z,30.47
2019-02-21T10:35:54.471Z,31.27
2019-02-21T10:38:23.219Z,32.27
2019-02-21T10:40:52.046Z,32.17
2019-02-21T10:43:23.427Z,31.00
2019-02-21T10:45:53.800Z,30.27
2019-02-21T10:48:25.237Z,30.73
2019-02-21T10:50:54.645Z,29.83
2019-02-21T10:53:23.321Z,31.67
2019-02-21T10:55:53.503Z,32.80
2019-02-21T10:58:22.361Z,29.17
2019-02-21T11:00:51.242Z,30.73
2019-02-21T11:03:20.935Z,31.93
2019-02-21T11:05:49.677Z,30.60
2019-02-21T11:08:18.701Z,28.80
2019-02-21T11:10:47.529Z,29.37
2019-02-21T11:13:17.514Z,28.23
2019-02-21T11:15:48.038Z,29.77
2019-02-21T11:18:24.856Z,30.30
2019-02-21T11:20:56.389Z,28.27
2019-02-21T11:23:25.135Z,28.63
2019-02-21T11:25:55.111Z,27.83
2019-02-21T11:28:24.060Z,28.80
2019-02-21T11:30:55.083Z,30.30
2019-02-21T11:33:26.145Z,30.67
2019-02-21T11:35:54.954Z,29.33
2019-02-21T11:38:23.779Z,27.10
2019-02-21T11:40:53.825Z,26.93
2019-02-21T11:43:22.555Z,27.80
2019-02-21T11:45:55.218Z,33.40
2019-02-21T11:48:26.099Z,29.27
2019-02-21T11:50:55.803Z,43.67
2019-02-21T11:53:26.183Z,26.97
2019-02-21T11:55:55.720Z,29.90
2019-02-21T11:58:25.282Z,25.97
2019-02-21T12:00:54.017Z,25.03
2019-02-21T12:03:23.079Z,25.17
2019-02-21T12:05:52.525Z,23.93
2019-02-21T12:08:22.774Z,24.37
2019-02-21T12:10:51.535Z,22.57
2019-02-21T12:13:20.715Z,26.00
2019-02-21T12:15:50.425Z,23.33
2019-02-21T12:18:20.652Z,22.77
2019-02-21T12:20:50.363Z,24.03
2019-02-21T12:23:20.732Z,24.13
2019-02-21T12:25:50.539Z,22.80
2019-02-21T12:28:20.406Z,23.10
2019-02-21T12:30:50.651Z,25.57
2019-02-21T12:33:19.433Z,28.13
2019-02-21T12:35:49.177Z,22.70
2019-02-21T12:38:20.703Z,22.23
2019-02-21T12:40:50.919Z,22.83
2019-02-21T12:43:19.724Z,23.70
2019-02-21T12:45:49.563Z,24.40
2019-02-21T12:48:19.972Z,50.47
2019-02-21T12:50:48.690Z,23.03
2019-02-21T12:53:17.423Z,20.90
2019-02-21T12:55:46.347Z,21.87
2019-02-21T12:58:15.228Z,21.53
2019-02-21T13:00:45.669Z,22.47
2019-02-21T13:03:14.355Z,21.70
2019-02-21T13:05:44.626Z,18.77
2019-02-21T13:08:13.523Z,19.03
2019-02-21T13:10:43.661Z,19.83
2019-02-21T13:13:14.184Z,18.37
2019-02-21T13:15:46.143Z,17.93
2019-02-21T13:18:16.093Z,18.37
2019-02-21T13:20:45.912Z,18.50
2019-02-21T13:23:14.829Z,19.00
2019-02-21T13:25:46.260Z,20.27
2019-02-21T13:28:15.076Z,18.03
2019-02-21T13:30:48.268Z,17.10
2019-02-21T13:33:17.079Z,16.27
2019-02-21T13:35:52.582Z,15.87
2019-02-21T13:38:18.832Z,16.43
2019-02-21T13:40:49.603Z,15.73
2019-02-21T13:43:19.105Z,15.70
2019-02-21T13:45:49.386Z,15.47
2019-02-21T13:48:32.409Z,16.10
2019-02-21T13:51:01.245Z,15.10
2019-02-21T13:53:30.173Z,16.87
2019-02-21T13:56:00.935Z,15.43
2019-02-21T13:58:31.154Z,16.37
2019-02-21T14:01:02.031Z,16.60
2019-02-21T14:03:31.204Z,16.80
2019-02-21T14:06:03.508Z,15.63
2019-02-21T14:08:30.880Z,16.63
2019-02-21T14:10:59.759Z,15.60
2019-02-21T14:13:28.418Z,14.63
2019-02-21T14:16:00.591Z,13.17
2019-02-21T14:18:33.940Z,14.33
2019-02-21T14:21:04.964Z,12.20
2019-02-21T14:23:36.699Z,11.50
2019-02-21T14:26:05.587Z,10.90
2019-02-21T14:28:37.496Z,12.40
2019-02-21T14:31:09.752Z,11.53
2019-02-21T14:33:38.417Z,13.50
2019-02-21T14:36:15.566Z,14.37
2019-02-21T14:38:41.755Z,15.93
2019-02-21T14:41:11.090Z,14.97
2019-02-21T14:43:43.353Z,13.67
2019-02-21T14:46:18.464Z,14.77
2019-02-21T14:48:47.405Z,12.63
2019-02-21T14:51:16.853Z,11.50
2019-02-21T14:53:47.143Z,11.97
2019-02-21T14:56:17.043Z,13.17
2019-02-21T14:58:47.578Z,11.10
2019-02-21T15:01:19.350Z,13.00
2019-02-21T15:03:48.069Z,12.07
2019-02-21T15:06:26.795Z,10.70
2019-02-21T15:08:48.771Z,10.97
2019-02-21T15:11:21.445Z,11.83
2019-02-21T15:14:13.167Z,11.73
2019-02-21T15:16:43.352Z,11.23
2019-02-21T15:19:13.155Z,10.00
2019-02-21T15:21:44.293Z,10.53
2019-02-21T15:24:16.481Z,9.50
2019-02-21T15:26:46.843Z,11.47
2019-02-21T15:29:17.673Z,11.83
2019-02-21T15:31:49.681Z,11.30
2019-02-21T15:34:22.138Z,10.80
2019-02-21T15:36:54.053Z,12.17
2019-02-21T15:39:25.716Z,12.33
2019-02-21T15:41:59.275Z,12.80
2019-02-21T15:44:29.729Z,14.13
2019-02-21T15:47:03.375Z,14.00
2019-02-21T15:49:34.894Z,13.80
2019-02-21T15:52:04.797Z,15.03
2019-02-21T15:54:39.096Z,16.53
2019-02-21T15:57:08.871Z,17.17
2019-02-21T15:59:40.588Z,16.10
2019-02-21T16:02:09.100Z,16.87
2019-02-21T16:04:42.290Z,17.53
2019-02-21T16:07:12.473Z,16.80
2019-02-21T16:09:42.066Z,19.43
2019-02-21T16:12:13.447Z,19.17
2019-02-21T16:14:45.430Z,19.07
2019-02-21T16:17:14.467Z,18.20
2019-02-21T16:19:46.671Z,20.13
2019-02-21T16:22:16.060Z,18.33
2019-02-21T16:24:48.037Z,18.63
2019-02-21T16:27:19.336Z,18.03
2019-02-21T16:29:52.475Z,14.97
2019-02-21T16:32:24.201Z,9.57
2019-02-21T16:34:54.320Z,10.33
2019-02-21T16:37:24.641Z,10.87
2019-02-21T16:40:00.765Z,10.70
2019-02-21T16:42:30.144Z,9.90
2019-02-21T16:44:59.900Z,9.47
2019-02-21T16:47:28.771Z,10.03
2019-02-21T16:50:03.897Z,7.37
2019-02-21T16:52:32.864Z,8.53
2019-02-21T16:55:01.639Z,8.63
2019-02-21T16:57:32.184Z,8.77
2019-02-21T17:00:02.448Z,8.47
2019-02-21T17:02:33.244Z,8.90
2019-02-21T17:05:02.016Z,9.20
2019-02-21T17:07:31.299Z,9.00
2019-02-21T17:10:03.996Z,8.07
2019-02-21T17:12:33.072Z,8.73
2019-02-21T17:15:20.892Z,8.67
2019-02-21T17:17:52.583Z,8.23
2019-02-21T17:20:24.805Z,8.53
2019-02-21T17:22:53.706Z,8.37
2019-02-21T17:25:22.645Z,8.47
2019-02-21T17:27:57.331Z,8.63
2019-02-21T17:30:26.618Z,7.70
2019-02-21T17:32:56.791Z,7.43
2019-02-21T17:35:26.759Z,7.90
2019-02-21T17:37:55.412Z,7.20
2019-02-21T17:40:26.017Z,7.87
2019-02-21T17:42:54.826Z,8.43
2019-02-21T17:45:25.234Z,8.60
2019-02-21T17:47:55.452Z,8.67
2019-02-21T17:50:26.048Z,9.40
2019-02-21T17:52:56.577Z,9.57
2019-02-21T17:55:25.716Z,10.40
2019-02-21T17:57:54.564Z,10.63
2019-02-21T18:00:40.326Z,11.53
2019-02-21T18:03:09.036Z,10.37
2019-02-21T18:05:39.200Z,11.33
2019-02-21T18:08:07.846Z,12.47
2019-02-21T18:10:42.697Z,13.20
2019-02-21T18:13:14.827Z,12.83
2019-02-21T18:15:43.596Z,12.77
2019-02-21T18:18:14.547Z,12.60
2019-02-21T18:20:43.259Z,13.00
2019-02-21T18:23:14.852Z,12.73
2019-02-21T18:25:46.842Z,14.10
2019-02-21T18:28:15.514Z,14.03
2019-02-21T18:30:47.782Z,14.80
2019-02-21T18:33:18.154Z,14.57
2019-02-21T18:35:48.684Z,15.63
2019-02-21T18:38:18.821Z,15.77
2019-02-21T18:40:49.423Z,16.20
2019-02-21T18:43:27.092Z,15.80
2019-02-21T18:45:59.308Z,16.80
2019-02-21T18:48:30.626Z,15.83
2019-02-21T18:51:00.657Z,15.87
2019-02-21T18:53:35.503Z,16.33
2019-02-21T18:56:04.524Z,17.03
2019-02-21T18:58:39.595Z,16.10
2019-02-21T19:01:10.676Z,16.17
2019-02-21T19:03:43.694Z,15.90
2019-02-21T19:06:15.441Z,16.67
2019-02-21T19:08:47.648Z,17.93
2019-02-21T19:11:21.856Z,17.13
2019-02-21T19:16:42.614Z,15.60
2019-02-21T19:19:17.141Z,16.77
2019-02-21T19:21:48.836Z,18.03
2019-02-21T19:24:22.744Z,17.63
2019-02-21T19:26:51.511Z,15.90
2019-02-21T19:29:26.261Z,16.90
2019-02-21T19:32:13.644Z,17.33
2019-02-21T19:34:42.371Z,17.33
2019-02-21T19:37:11.760Z,17.13
2019-02-21T19:39:41.591Z,19.27
2019-02-21T19:42:13.211Z,21.13
2019-02-21T19:44:51.847Z,20.33
2019-02-21T19:47:24.835Z,17.97
2019-02-21T19:49:55.594Z,17.83
2019-02-21T19:52:25.913Z,18.73
2019-02-21T19:54:55.500Z,18.80
2019-02-21T19:57:27.229Z,18.03
2019-02-21T19:59:55.998Z,19.60
2019-02-21T20:02:29.707Z,21.63
2019-02-21T20:05:00.456Z,21.90
2019-02-21T20:07:32.252Z,22.53
2019-02-21T20:10:06.741Z,20.73
2019-02-21T20:12:39.217Z,21.37
2019-02-21T20:15:12.423Z,20.60
2019-02-21T20:17:46.248Z,19.77
2019-02-21T20:20:28.347Z,17.27
2019-02-21T20:23:00.626Z,16.60
2019-02-21T20:25:32.807Z,17.53
2019-02-21T20:28:04.511Z,13.17
2019-02-21T20:30:34.967Z,11.17
2019-02-21T20:33:04.939Z,12.27
2019-02-21T20:35:37.586Z,11.60
2019-02-21T20:38:09.780Z,12.67
2019-02-21T20:40:38.957Z,12.77
2019-02-21T20:43:13.893Z,12.20
2019-02-21T20:45:52.522Z,12.27
2019-02-21T20:48:15.660Z,12.33
2019-02-21T20:50:56.182Z,11.67
2019-02-21T20:53:17.185Z,15.33
2019-02-21T20:55:46.157Z,12.63
2019-02-21T20:58:18.793Z,12.27
2019-02-21T21:00:52.696Z,11.20
2019-02-21T21:03:23.952Z,11.87
2019-02-21T21:05:53.249Z,12.70
2019-02-21T21:08:24.102Z,14.03
2019-02-21T21:10:54.269Z,11.33
2019-02-21T21:13:22.959Z,11.60
2019-02-21T21:15:52.003Z,10.63
2019-02-21T21:18:22.867Z,10.13
2019-02-21T21:20:57.001Z,10.23
2019-02-21T21:23:26.794Z,9.63
2019-02-21T21:25:57.251Z,7.53
2019-02-21T21:28:31.867Z,7.63
2019-02-21T21:31:03.747Z,7.13
2019-02-21T21:33:32.876Z,7.00
2019-02-21T21:36:04.183Z,6.87
2019-02-21T21:38:35.748Z,5.83
2019-02-21T21:41:04.495Z,6.87
2019-02-21T21:43:35.375Z,3.73
2019-02-21T21:46:08.906Z,6.13
2019-02-21T21:48:41.240Z,4.30
2019-02-21T21:51:11.592Z,3.17
2019-02-21T21:53:43.573Z,6.53
2019-02-21T21:56:17.554Z,5.47
2019-02-21T21:58:48.467Z,4.93
2019-02-21T22:01:17.181Z,5.33
2019-02-21T22:03:47.476Z,6.10
2019-02-21T22:06:19.088Z,6.70
2019-02-21T22:09:04.239Z,4.03
2019-02-21T22:11:24.213Z,6.33
2019-02-21T22:13:55.124Z,6.53
2019-02-21T22:16:27.487Z,6.93
2019-02-21T22:19:03.333Z,6.77
2019-02-21T22:21:32.762Z,6.90
2019-02-21T22:24:05.724Z,6.63
2019-02-21T22:26:40.788Z,7.43
2019-02-21T22:29:09.567Z,7.37
2019-02-21T22:31:42.653Z,6.77
2019-02-21T22:34:11.277Z,7.33
2019-02-21T22:36:39.958Z,6.80
2019-02-21T22:39:16.271Z,7.37
2019-02-21T22:41:42.345Z,6.23
2019-02-21T22:44:17.613Z,6.80
2019-02-21T22:46:45.589Z,7.87
2019-02-21T22:49:21.540Z,8.13
2019-02-21T22:51:48.868Z,7.93
2019-02-21T22:54:21.446Z,7.40
2019-02-21T22:56:55.854Z,6.83
2019-02-21T22:59:34.976Z,6.33
2019-02-21T23:02:06.545Z,4.87
2019-02-21T23:04:38.710Z,4.47
2019-02-21T23:07:25.126Z,2.63
2019-02-21T23:09:59.167Z,2.57
2019-02-21T23:12:31.851Z,3.00
2019-02-21T23:15:03.163Z,1.73
2019-02-21T23:17:33.898Z,1.93
2019-02-21T23:20:08.796Z,2.50
2019-02-21T23:22:40.674Z,1.73
2019-02-21T23:25:12.760Z,2.20
2019-02-21T23:27:41.677Z,2.77
2019-02-21T23:30:11.872Z,2.83
2019-02-21T23:32:46.755Z,1.87
2019-02-21T23:35:24.809Z,2.70
2019-02-21T23:37:54.996Z,3.00
2019-02-21T23:40:26.079Z,3.33
2019-02-21T23:42:56.577Z,1.53
2019-02-21T23:45:27.208Z,2.73
2019-02-21T23:47:59.236Z,2.73
2019-02-21T23:50:30.520Z,3.53
2019-02-21T23:53:02.255Z,3.30
2019-02-21T23:55:40.240Z,1.73
2019-02-21T23:58:09.897Z,3.10
